Terminal Aerodrome Forecast
Issued by NWS

Home | Current Version | Previous Version | Text Only | Print | Product List | Glossary On
Versions: 1 2 3 4 5 6 7 8 9 10 11 12
403
FTPA31 PHFO 221738
TAFSTU
TAF
NSTU 221738Z 2218/2318 VRB05KT P6SM VCSH SCT020 BKN040 BKN100
     FM231100 18009KT P6SM SCT020 BKN040 BKN100=

USA.gov is the U.S. government's official web portal to all federal, state and local government web resources and services.